createdAt,value
2023-08-14T00:00:42.416Z,1.40
2023-08-14T00:03:08.944Z,2.47
2023-08-14T00:05:35.607Z,2.53
2023-08-14T00:08:02.041Z,2.07
2023-08-14T00:10:28.517Z,1.90
2023-08-14T00:12:54.964Z,1.10
2023-08-14T00:15:21.707Z,4.38
2023-08-14T00:17:48.234Z,1.38
2023-08-14T00:20:14.726Z,2.57
2023-08-14T00:22:41.249Z,1.77
2023-08-14T00:25:08.149Z,1.20
2023-08-14T00:27:34.595Z,1.60
2023-08-14T00:30:02.374Z,2.17
2023-08-14T00:32:28.825Z,1.67
2023-08-14T00:34:55.268Z,1.88
2023-08-14T00:37:24.020Z,3.35
2023-08-14T00:39:50.439Z,2.38
2023-08-14T00:42:17.017Z,1.75
2023-08-14T00:44:43.619Z,3.07
2023-08-14T00:47:10.132Z,3.85
2023-08-14T00:49:36.607Z,2.72
2023-08-14T00:52:03.249Z,2.45
2023-08-14T00:54:29.914Z,2.55
2023-08-14T00:56:56.501Z,2.73
2023-08-14T00:59:23.199Z,2.78
2023-08-14T01:01:49.692Z,5.60
2023-08-14T01:04:16.191Z,2.08
2023-08-14T01:06:43.479Z,3.65
2023-08-14T01:09:10.923Z,4.00
2023-08-14T01:11:49.015Z,3.05
2023-08-14T01:14:29.813Z,3.72
2023-08-14T01:17:02.424Z,3.10
2023-08-14T01:19:40.738Z,2.15
2023-08-14T01:22:34.797Z,2.80
2023-08-14T01:25:20.479Z,2.50
2023-08-14T01:27:47.366Z,2.42
2023-08-14T01:30:13.832Z,3.28
2023-08-14T01:32:40.295Z,2.33
2023-08-14T01:35:07.673Z,4.27
2023-08-14T01:37:43.634Z,1.95
2023-08-14T01:40:43.966Z,2.85
2023-08-14T01:43:15.809Z,2.80
2023-08-14T01:45:42.462Z,3.00
2023-08-14T01:48:11.007Z,1.70
2023-08-14T01:50:39.557Z,3.33
2023-08-14T01:53:07.597Z,3.17
2023-08-14T01:55:34.308Z,1.80
2023-08-14T01:58:01.470Z,3.40
2023-08-14T02:00:30.317Z,2.13
2023-08-14T02:02:58.480Z,4.07
2023-08-14T02:05:24.992Z,2.63
2023-08-14T02:07:51.427Z,13.90
2023-08-14T02:10:17.964Z,4.85
2023-08-14T02:12:44.411Z,1.87
2023-08-14T02:15:10.989Z,2.58
2023-08-14T02:17:37.537Z,3.35
2023-08-14T02:20:04.449Z,2.80
2023-08-14T02:22:30.905Z,5.75
2023-08-14T02:24:57.401Z,3.43
2023-08-14T02:27:23.895Z,5.63
2023-08-14T02:29:50.302Z,2.45
2023-08-14T02:32:17.116Z,3.97
2023-08-14T02:34:44.954Z,3.88
2023-08-14T02:37:12.672Z,5.30
2023-08-14T02:39:39.343Z,3.80
2023-08-14T02:42:05.939Z,3.30
2023-08-14T02:44:32.507Z,3.78
2023-08-14T02:46:59.621Z,4.25
2023-08-14T02:49:26.323Z,4.63
2023-08-14T02:51:53.500Z,3.83
2023-08-14T02:54:20.042Z,3.38
2023-08-14T02:56:47.287Z,2.17
2023-08-14T02:59:13.763Z,3.42
2023-08-14T03:01:40.282Z,3.20
2023-08-14T03:04:06.925Z,4.22
2023-08-14T03:06:33.586Z,1.83
2023-08-14T03:09:00.310Z,2.00
2023-08-14T03:11:27.197Z,4.50
2023-08-14T03:13:54.014Z,2.20
2023-08-14T03:16:20.584Z,1.90
2023-08-14T03:18:47.118Z,1.90
2023-08-14T03:21:13.794Z,1.30
2023-08-14T03:23:40.220Z,1.90
2023-08-14T03:26:06.924Z,2.20
2023-08-14T03:28:33.395Z,1.83
2023-08-14T03:30:59.814Z,1.95
2023-08-14T03:33:26.280Z,1.60
2023-08-14T03:35:55.906Z,1.60
2023-08-14T03:38:22.845Z,1.90
2023-08-14T03:40:49.281Z,3.58
2023-08-14T03:43:15.783Z,2.47
2023-08-14T03:45:42.205Z,4.78
2023-08-14T03:48:08.725Z,2.63
2023-08-14T03:50:35.242Z,2.88
2023-08-14T03:53:01.701Z,1.95
2023-08-14T03:55:28.131Z,1.67
2023-08-14T03:57:55.675Z,4.47
2023-08-14T04:00:22.170Z,3.53
2023-08-14T04:02:48.786Z,6.00
2023-08-14T04:05:16.041Z,4.53
2023-08-14T04:07:42.479Z,5.10
2023-08-14T04:10:09.027Z,5.35
2023-08-14T04:12:35.599Z,3.92
2023-08-14T04:15:17.961Z,8.40
2023-08-14T04:17:44.909Z,3.03
2023-08-14T04:20:12.209Z,3.47
2023-08-14T04:22:38.826Z,3.65
2023-08-14T04:25:05.838Z,4.40
2023-08-14T04:27:32.797Z,4.55
2023-08-14T04:29:59.230Z,5.40
2023-08-14T04:32:25.774Z,4.30
2023-08-14T04:34:52.281Z,4.25
2023-08-14T04:37:18.747Z,4.63
2023-08-14T04:39:45.220Z,4.88
2023-08-14T04:42:11.704Z,4.55
2023-08-14T04:44:38.164Z,4.93
2023-08-14T04:47:04.772Z,6.53
2023-08-14T04:49:31.293Z,4.65
2023-08-14T04:51:57.737Z,2.97
2023-08-14T04:54:24.279Z,4.15
2023-08-14T04:56:50.770Z,7.75
2023-08-14T04:59:17.605Z,6.95
2023-08-14T05:01:44.147Z,6.45
2023-08-14T05:04:10.756Z,7.93
2023-08-14T05:06:37.350Z,8.65
2023-08-14T05:09:16.077Z,6.30
2023-08-14T05:11:47.178Z,4.85
2023-08-14T05:14:13.774Z,4.90
2023-08-14T05:16:40.272Z,7.23
2023-08-14T05:19:06.783Z,6.60
2023-08-14T05:21:33.245Z,4.45
2023-08-14T05:23:59.673Z,5.53
2023-08-14T05:26:28.636Z,6.18
2023-08-14T05:28:55.216Z,7.97
2023-08-14T05:31:21.850Z,5.40
2023-08-14T05:33:48.312Z,6.50
2023-08-14T05:36:14.813Z,6.38
2023-08-14T05:38:41.291Z,6.07
2023-08-14T05:41:07.730Z,7.47
2023-08-14T05:43:34.119Z,9.57
2023-08-14T05:46:00.763Z,8.30
2023-08-14T05:48:27.274Z,7.35
2023-08-14T05:50:53.750Z,9.35
2023-08-14T05:53:20.276Z,7.23
2023-08-14T05:55:46.965Z,8.43
2023-08-14T05:58:13.386Z,9.32
2023-08-14T06:00:40.215Z,8.43
2023-08-14T06:03:07.228Z,6.55
2023-08-14T06:05:35.444Z,9.03
2023-08-14T06:08:02.888Z,6.82
2023-08-14T06:10:29.321Z,9.55
2023-08-14T06:12:55.760Z,6.18
2023-08-14T06:15:22.456Z,9.55
2023-08-14T06:17:49.950Z,10.40
2023-08-14T06:20:16.935Z,11.35
2023-08-14T06:22:45.088Z,8.68
2023-08-14T06:25:13.019Z,6.20
2023-08-14T06:27:40.099Z,9.23
2023-08-14T06:30:10.179Z,9.80
2023-08-14T06:32:37.580Z,9.70
2023-08-14T06:35:05.076Z,7.68
2023-08-14T06:37:32.087Z,9.90
2023-08-14T06:39:58.856Z,7.70
2023-08-14T06:42:25.473Z,9.98
2023-08-14T06:44:52.013Z,8.45
2023-08-14T06:47:18.506Z,9.70
2023-08-14T06:49:44.933Z,6.95
2023-08-14T06:52:11.452Z,7.88
2023-08-14T06:54:37.959Z,10.80
2023-08-14T06:57:04.772Z,8.10
2023-08-14T06:59:31.976Z,9.80
2023-08-14T07:01:58.522Z,8.50
2023-08-14T07:04:25.009Z,8.70
2023-08-14T07:06:51.430Z,7.63
2023-08-14T07:09:18.019Z,12.20
2023-08-14T07:11:44.752Z,6.97
2023-08-14T07:14:11.298Z,9.18
2023-08-14T07:16:37.933Z,10.65
2023-08-14T07:19:04.871Z,12.02
2023-08-14T07:21:32.344Z,11.07
2023-08-14T07:23:58.774Z,7.93
2023-08-14T07:26:25.248Z,9.07
2023-08-14T07:28:51.685Z,7.60
2023-08-14T07:31:18.371Z,8.75
2023-08-14T07:33:44.872Z,7.22
2023-08-14T07:36:11.319Z,6.43
2023-08-14T07:38:37.852Z,10.13
2023-08-14T07:41:04.333Z,9.90
2023-08-14T07:43:30.743Z,6.10
2023-08-14T07:45:57.322Z,7.68
2023-08-14T07:48:23.926Z,6.05
2023-08-14T07:50:54.511Z,12.77
2023-08-14T07:53:21.379Z,12.55
2023-08-14T07:55:50.768Z,5.38
2023-08-14T07:58:19.207Z,8.63
2023-08-14T08:00:46.584Z,9.02
2023-08-14T08:03:13.157Z,11.20
2023-08-14T08:05:39.685Z,7.85
2023-08-14T08:08:06.696Z,9.60
2023-08-14T08:10:33.650Z,8.95
2023-08-14T08:13:00.131Z,9.90
2023-08-14T08:15:26.642Z,7.93
2023-08-14T08:17:53.263Z,9.88
2023-08-14T08:20:19.883Z,7.20
2023-08-14T08:22:46.361Z,6.72
2023-08-14T08:25:12.799Z,6.47
2023-08-14T08:27:39.254Z,9.25
2023-08-14T08:30:06.290Z,7.22
2023-08-14T08:32:32.821Z,6.47
2023-08-14T08:34:59.491Z,8.48
2023-08-14T08:37:26.038Z,10.00
2023-08-14T08:39:53.982Z,9.23
2023-08-14T08:42:21.251Z,7.50
2023-08-14T08:44:50.692Z,6.15
2023-08-14T08:47:23.057Z,7.50
2023-08-14T08:49:49.807Z,5.57
2023-08-14T08:52:16.982Z,4.85
2023-08-14T08:54:44.022Z,5.78
2023-08-14T08:57:12.032Z,4.23
2023-08-14T08:59:40.942Z,4.95
2023-08-14T09:02:09.208Z,4.43
2023-08-14T09:04:35.989Z,7.78
2023-08-14T09:07:02.540Z,5.88
2023-08-14T09:09:29.023Z,5.63
2023-08-14T09:11:55.450Z,7.43
2023-08-14T09:14:23.485Z,5.45
2023-08-14T09:16:54.587Z,8.30
2023-08-14T09:19:21.513Z,6.90
2023-08-14T09:21:48.211Z,5.40
2023-08-14T09:24:15.987Z,5.15
2023-08-14T09:26:44.593Z,7.18
2023-08-14T09:29:14.307Z,6.03
2023-08-14T09:31:45.003Z,3.85
2023-08-14T09:34:19.011Z,9.00
2023-08-14T09:36:46.078Z,6.85
2023-08-14T09:39:13.374Z,7.10
2023-08-14T09:41:39.925Z,7.13
2023-08-14T09:44:06.486Z,3.70
2023-08-14T09:46:33.084Z,4.97
2023-08-14T09:48:59.611Z,7.07
2023-08-14T09:51:26.136Z,4.45
2023-08-14T09:53:59.914Z,7.55
2023-08-14T09:56:26.894Z,6.67
2023-08-14T09:58:56.471Z,8.43
2023-08-14T10:01:23.346Z,5.18
2023-08-14T10:03:54.773Z,5.95
2023-08-14T10:06:25.778Z,7.05
2023-08-14T10:08:58.727Z,7.45
2023-08-14T10:11:29.399Z,4.78
2023-08-14T10:14:01.372Z,6.20
2023-08-14T10:16:40.938Z,4.65
2023-08-14T10:19:13.955Z,8.02
2023-08-14T10:21:43.895Z,5.32
2023-08-14T10:24:12.919Z,6.18
2023-08-14T10:26:39.473Z,5.25
2023-08-14T10:29:06.634Z,6.40
2023-08-14T10:31:34.182Z,5.25
2023-08-14T10:34:01.317Z,4.40
2023-08-14T10:36:29.168Z,4.07
2023-08-14T10:39:03.187Z,5.03
2023-08-14T10:41:35.291Z,5.22
2023-08-14T10:44:09.052Z,5.03
2023-08-14T10:46:38.151Z,3.33
2023-08-14T10:49:04.986Z,3.65
2023-08-14T10:51:33.078Z,3.28
2023-08-14T10:54:14.890Z,5.38
2023-08-14T10:56:47.543Z,4.88
2023-08-14T10:59:23.724Z,4.82
2023-08-14T11:01:53.333Z,4.22
2023-08-14T11:04:20.209Z,6.38
2023-08-14T11:07:02.751Z,3.53
2023-08-14T11:09:35.719Z,4.50
2023-08-14T11:12:07.898Z,5.47
2023-08-14T11:14:40.079Z,3.60
2023-08-14T11:17:08.229Z,4.07
2023-08-14T11:19:36.387Z,5.07
2023-08-14T11:22:06.149Z,5.82
2023-08-14T11:24:38.026Z,4.47
2023-08-14T11:27:04.965Z,3.42
2023-08-14T11:29:33.055Z,3.55
2023-08-14T11:32:01.578Z,3.78
2023-08-14T11:34:28.687Z,3.08
2023-08-14T11:37:07.235Z,4.65
2023-08-14T11:39:35.717Z,3.42
2023-08-14T11:42:04.089Z,4.25
2023-08-14T11:44:30.642Z,3.30
2023-08-14T11:46:57.681Z,2.13
2023-08-14T11:49:25.116Z,3.33
2023-08-14T11:51:54.046Z,1.90
2023-08-14T11:54:20.876Z,4.95
2023-08-14T11:56:48.873Z,1.48
2023-08-14T11:59:17.812Z,5.30
2023-08-14T12:01:44.551Z,4.63
2023-08-14T12:04:11.675Z,3.95
2023-08-14T12:06:38.197Z,2.55
2023-08-14T12:09:09.074Z,3.97
2023-08-14T12:11:38.132Z,4.40
2023-08-14T12:14:06.605Z,3.10
2023-08-14T12:16:33.141Z,4.07
2023-08-14T12:18:59.621Z,2.92
2023-08-14T12:21:29.806Z,3.85
2023-08-14T12:23:56.561Z,2.70
2023-08-14T12:26:23.651Z,2.65
2023-08-14T12:28:50.118Z,4.30
2023-08-14T12:31:16.647Z,3.47
2023-08-14T12:33:45.279Z,4.53
2023-08-14T12:36:13.541Z,3.97
2023-08-14T12:38:40.043Z,4.35
2023-08-14T12:41:06.876Z,3.22
2023-08-14T12:43:39.009Z,1.77
2023-08-14T12:46:10.075Z,3.40
2023-08-14T12:48:36.644Z,5.28
2023-08-14T12:51:04.616Z,3.05
2023-08-14T12:53:31.066Z,3.97
2023-08-14T12:56:03.507Z,3.15
2023-08-14T12:58:30.823Z,1.83
2023-08-14T13:00:57.285Z,2.45
2023-08-14T13:03:35.126Z,3.03
2023-08-14T13:06:03.770Z,2.83
2023-08-14T13:08:30.447Z,2.95
2023-08-14T13:10:56.999Z,3.63
2023-08-14T13:13:25.167Z,3.78
2023-08-14T13:15:52.110Z,4.25
2023-08-14T13:18:18.593Z,1.88
2023-08-14T13:20:45.110Z,4.18
2023-08-14T13:23:11.563Z,4.35
2023-08-14T13:25:42.303Z,6.75
2023-08-14T13:28:09.476Z,3.92
2023-08-14T13:30:35.942Z,3.05
2023-08-14T13:33:02.476Z,7.50
2023-08-14T13:35:28.982Z,2.30
2023-08-14T13:37:55.471Z,6.18
2023-08-14T13:40:21.917Z,4.43
2023-08-14T13:42:48.400Z,4.00
2023-08-14T13:45:18.807Z,3.75
2023-08-14T13:47:53.711Z,3.35
2023-08-14T13:50:32.748Z,2.15
2023-08-14T13:53:00.935Z,3.70
2023-08-14T13:55:34.160Z,5.05
2023-08-14T13:58:01.999Z,2.90
2023-08-14T14:00:30.363Z,2.60
2023-08-14T14:02:58.684Z,3.10
2023-08-14T14:05:25.963Z,4.80
2023-08-14T14:07:55.664Z,3.55
2023-08-14T14:10:23.918Z,3.65
2023-08-14T14:15:20.026Z,2.15
2023-08-14T14:17:46.483Z,2.22
2023-08-14T14:20:13.059Z,1.90
2023-08-14T14:22:39.558Z,3.67
2023-08-14T14:25:06.676Z,2.33
2023-08-14T14:27:33.234Z,2.42
2023-08-14T14:29:59.778Z,3.97
2023-08-14T14:32:28.737Z,5.63
2023-08-14T14:34:55.193Z,2.03
2023-08-14T14:37:21.758Z,3.38
2023-08-14T14:39:48.175Z,3.30
2023-08-14T14:42:14.717Z,4.30
2023-08-14T14:44:41.304Z,2.72
2023-08-14T14:47:07.830Z,3.92
2023-08-14T14:49:34.398Z,4.45
2023-08-14T14:52:02.586Z,4.20
2023-08-14T14:54:29.144Z,1.73
2023-08-14T14:56:55.623Z,2.50
2023-08-14T14:59:22.874Z,2.65
2023-08-14T15:01:49.316Z,5.30
2023-08-14T15:04:15.822Z,2.53
2023-08-14T15:06:43.000Z,3.17
2023-08-14T15:09:11.938Z,3.20
2023-08-14T15:11:38.401Z,2.72
2023-08-14T15:14:05.082Z,3.10
2023-08-14T15:16:33.478Z,3.40
2023-08-14T15:19:00.180Z,3.10
2023-08-14T15:21:26.690Z,1.95
2023-08-14T15:23:53.166Z,4.22
2023-08-14T15:26:20.700Z,3.65
2023-08-14T15:28:47.181Z,5.60
2023-08-14T15:31:13.945Z,3.40
2023-08-14T15:33:40.527Z,4.03
2023-08-14T15:36:07.096Z,2.42
2023-08-14T15:38:33.736Z,3.90
2023-08-14T15:41:00.573Z,4.30
2023-08-14T15:43:27.258Z,3.43
2023-08-14T15:46:04.357Z,4.18
2023-08-14T15:48:30.928Z,3.85
2023-08-14T15:50:57.404Z,3.10
2023-08-14T15:53:23.889Z,2.92
2023-08-14T15:55:50.424Z,4.93
2023-08-14T15:58:16.987Z,6.30
2023-08-14T16:00:45.073Z,4.63
2023-08-14T16:03:12.165Z,2.90
2023-08-14T16:05:39.011Z,4.50
2023-08-14T16:08:06.447Z,7.73
2023-08-14T16:10:32.968Z,5.53
2023-08-14T16:12:59.584Z,3.38
2023-08-14T16:15:26.057Z,3.67
2023-08-14T16:17:52.581Z,3.00
2023-08-14T16:20:19.081Z,2.00
2023-08-14T16:22:45.672Z,3.17
2023-08-14T16:25:12.296Z,3.55
2023-08-14T16:27:38.873Z,1.75
2023-08-14T16:30:05.825Z,2.83
2023-08-14T16:32:32.363Z,2.10
2023-08-14T16:34:59.598Z,6.40
2023-08-14T16:37:26.043Z,2.95
2023-08-14T16:39:52.494Z,3.00
2023-08-14T16:42:19.029Z,1.98
2023-08-14T16:44:45.802Z,4.00
2023-08-14T16:47:12.246Z,3.22
2023-08-14T16:49:38.706Z,2.45
2023-08-14T16:52:05.538Z,2.45
2023-08-14T16:54:31.961Z,2.55
2023-08-14T16:56:58.408Z,2.60
2023-08-14T16:59:25.604Z,2.83
2023-08-14T17:01:52.096Z,4.68
2023-08-14T17:04:19.061Z,3.80
2023-08-14T17:06:45.537Z,2.90
2023-08-14T17:09:14.474Z,4.45
2023-08-14T17:11:41.323Z,5.32
2023-08-14T17:14:07.872Z,3.53
2023-08-14T17:16:34.405Z,2.42
2023-08-14T17:19:00.960Z,2.55
2023-08-14T17:21:27.476Z,2.73
2023-08-14T17:23:54.123Z,2.67
2023-08-14T17:26:20.565Z,3.55
2023-08-14T17:28:47.077Z,3.03
2023-08-14T17:31:13.617Z,2.33
2023-08-14T17:33:40.040Z,2.42
2023-08-14T17:36:06.507Z,3.25
2023-08-14T17:38:32.991Z,3.05
2023-08-14T17:40:59.440Z,4.35
2023-08-14T17:43:25.943Z,2.53
2023-08-14T17:45:53.204Z,3.35
2023-08-14T17:48:20.434Z,2.70
2023-08-14T17:50:51.717Z,3.55
2023-08-14T17:53:20.599Z,4.82
2023-08-14T17:55:47.292Z,2.35
2023-08-14T17:58:13.782Z,6.15
2023-08-14T18:00:47.184Z,2.38
2023-08-14T18:03:14.137Z,3.67
2023-08-14T18:05:40.660Z,3.38
2023-08-14T18:08:07.315Z,1.73
2023-08-14T18:10:33.782Z,2.53
2023-08-14T18:13:00.242Z,2.65
2023-08-14T18:15:26.720Z,3.05
2023-08-14T18:17:53.310Z,2.60
2023-08-14T18:20:19.955Z,4.53
2023-08-14T18:22:46.512Z,3.08
2023-08-14T18:25:12.968Z,2.92
2023-08-14T18:27:39.437Z,3.60
2023-08-14T18:30:06.496Z,2.38
2023-08-14T18:32:32.998Z,6.05
2023-08-14T18:34:59.593Z,3.40
2023-08-14T18:37:26.631Z,2.47
2023-08-14T18:39:53.096Z,4.10
2023-08-14T18:42:19.533Z,3.15
2023-08-14T18:44:46.082Z,3.15
2023-08-14T18:47:12.527Z,3.78
2023-08-14T18:49:44.212Z,3.60
2023-08-14T18:52:10.709Z,3.67
2023-08-14T18:54:37.143Z,5.13
2023-08-14T18:57:03.610Z,5.68
2023-08-14T18:59:30.445Z,2.53
2023-08-14T19:01:56.950Z,4.73
2023-08-14T19:04:40.680Z,4.10
2023-08-14T19:07:08.759Z,2.60
2023-08-14T19:09:36.654Z,3.75
2023-08-14T19:12:04.562Z,2.53
2023-08-14T19:14:30.995Z,3.60
2023-08-14T19:16:57.471Z,4.90
2023-08-14T19:19:23.959Z,2.85
2023-08-14T19:21:50.414Z,2.92
2023-08-14T19:24:16.985Z,2.28
2023-08-14T19:26:43.501Z,3.00
2023-08-14T19:29:09.989Z,4.32
2023-08-14T19:31:36.461Z,4.97
2023-08-14T19:34:03.931Z,1.95
2023-08-14T19:36:30.718Z,4.40
2023-08-14T19:38:58.113Z,7.17
2023-08-14T19:41:25.641Z,3.63
2023-08-14T19:43:52.228Z,10.63
2023-08-14T19:46:18.841Z,4.45
2023-08-14T19:48:45.471Z,2.88
2023-08-14T19:51:12.307Z,2.47
2023-08-14T19:53:38.760Z,3.40
2023-08-14T19:56:05.333Z,4.05
2023-08-14T19:58:32.379Z,3.15
2023-08-14T20:00:59.693Z,4.90
2023-08-14T20:03:26.685Z,2.30
2023-08-14T20:05:53.261Z,2.33
2023-08-14T20:08:24.549Z,2.40
2023-08-14T20:10:51.511Z,4.88
2023-08-14T20:13:17.996Z,6.45
2023-08-14T20:15:46.043Z,6.53
2023-08-14T20:18:14.164Z,3.40
2023-08-14T20:20:41.599Z,2.72
2023-08-14T20:23:10.382Z,3.75
2023-08-14T20:25:38.145Z,4.75
2023-08-14T20:28:06.342Z,3.88
2023-08-14T20:30:39.335Z,4.50
2023-08-14T20:33:05.972Z,4.38
2023-08-14T20:35:39.463Z,2.97
2023-08-14T20:38:05.964Z,3.13
2023-08-14T20:40:32.422Z,4.10
2023-08-14T20:42:58.861Z,2.53
2023-08-14T20:45:25.261Z,2.72
2023-08-14T20:47:52.168Z,4.68
2023-08-14T20:50:18.695Z,5.28
2023-08-14T20:52:45.155Z,4.23
2023-08-14T20:55:11.841Z,4.40
2023-08-14T20:57:38.247Z,4.65
2023-08-14T21:00:05.054Z,4.25
2023-08-14T21:02:31.530Z,2.38
2023-08-14T21:04:58.074Z,5.03
2023-08-14T21:07:24.511Z,3.53
2023-08-14T21:09:51.245Z,3.78
2023-08-14T21:12:17.715Z,4.03
2023-08-14T21:14:44.214Z,3.75
2023-08-14T21:17:10.656Z,2.33
2023-08-14T21:19:37.133Z,7.30
2023-08-14T21:22:03.698Z,20.10
2023-08-14T21:24:31.189Z,20.15
2023-08-14T21:26:57.673Z,8.80
2023-08-14T21:29:24.083Z,5.87
2023-08-14T21:31:50.569Z,7.80
2023-08-14T21:34:17.347Z,5.35
2023-08-14T21:36:44.354Z,12.80
2023-08-14T21:39:11.196Z,7.68
2023-08-14T21:41:37.854Z,8.37
2023-08-14T21:44:04.625Z,7.43
2023-08-14T21:46:33.639Z,6.45
2023-08-14T21:49:01.685Z,5.00
2023-08-14T21:51:28.242Z,3.90
2023-08-14T21:53:54.835Z,7.10
2023-08-14T21:56:21.292Z,3.50
2023-08-14T21:58:47.749Z,2.88
2023-08-14T22:01:14.302Z,7.03
2023-08-14T22:03:40.780Z,7.55
2023-08-14T22:06:07.214Z,6.57
2023-08-14T22:08:33.649Z,9.45
2023-08-14T22:11:02.334Z,8.93
2023-08-14T22:13:28.771Z,9.60
2023-08-14T22:15:55.577Z,9.27
2023-08-14T22:18:22.243Z,5.53
2023-08-14T22:20:53.828Z,8.27
2023-08-14T22:23:22.785Z,5.68
2023-08-14T22:25:49.713Z,5.63
2023-08-14T22:28:16.218Z,6.50
2023-08-14T22:30:44.248Z,6.90
2023-08-14T22:33:11.402Z,8.02
2023-08-14T22:35:37.939Z,6.65
2023-08-14T22:38:04.704Z,8.38
2023-08-14T22:40:31.179Z,10.43
2023-08-14T22:42:57.616Z,5.28
2023-08-14T22:45:25.299Z,7.63
2023-08-14T22:47:52.021Z,6.70
2023-08-14T22:50:18.516Z,8.63
2023-08-14T22:52:45.058Z,10.90
2023-08-14T22:55:11.603Z,10.40
2023-08-14T22:57:38.061Z,9.98
2023-08-14T23:00:05.039Z,9.63
2023-08-14T23:02:31.477Z,13.63
2023-08-14T23:04:57.950Z,8.25
2023-08-14T23:07:24.478Z,8.30
2023-08-14T23:09:51.038Z,7.53
2023-08-14T23:12:17.445Z,11.70
2023-08-14T23:14:43.874Z,7.00
2023-08-14T23:17:10.290Z,6.35
2023-08-14T23:19:36.717Z,8.17
2023-08-14T23:22:03.182Z,5.72
2023-08-14T23:24:29.653Z,11.75
2023-08-14T23:26:56.143Z,8.00
2023-08-14T23:29:22.586Z,13.93
2023-08-14T23:31:49.084Z,7.23
2023-08-14T23:34:15.603Z,5.80
2023-08-14T23:36:42.121Z,5.60
2023-08-14T23:39:09.095Z,4.40
2023-08-14T23:41:36.087Z,4.57
2023-08-14T23:44:07.950Z,4.57
2023-08-14T23:46:34.422Z,6.65
2023-08-14T23:49:00.846Z,8.55
2023-08-14T23:51:27.334Z,5.40
2023-08-14T23:53:53.820Z,5.70
2023-08-14T23:56:20.315Z,7.72
2023-08-14T23:58:47.596Z,5.07
